createdAt,value
2023-01-03T00:54:37.315Z,26.04
2023-01-03T00:55:38.279Z,26.04
2023-01-03T00:56:38.290Z,26.05
2023-01-03T00:57:38.273Z,26.05
2023-01-03T00:58:38.269Z,26.04
2023-01-03T00:59:38.270Z,26.04
2023-01-03T01:00:38.261Z,26.04
2023-01-03T01:01:46.285Z,26.05
2023-01-03T01:02:38.468Z,26.04
2023-01-03T01:03:38.370Z,26.05
2023-01-03T01:04:38.272Z,26.03
2023-01-03T01:05:38.291Z,26.03
2023-01-03T01:06:38.285Z,26.03
2023-01-03T01:07:38.319Z,26.07
2023-01-03T01:08:38.294Z,26.03
2023-01-03T01:10:38.332Z,26.03
2023-01-03T01:11:38.306Z,26.01
2023-01-03T01:12:38.316Z,26.01
2023-01-03T01:13:38.304Z,26.00
2023-01-03T01:14:38.306Z,26.01
2023-01-03T01:15:38.360Z,26.01
2023-01-03T01:16:38.300Z,26.00
2023-01-03T01:17:38.288Z,26.00
2023-01-03T01:18:38.284Z,26.00
2023-01-03T01:19:38.289Z,26.01
2023-01-03T01:20:38.278Z,26.00
2023-01-03T01:21:38.283Z,26.00
2023-01-03T01:22:38.272Z,25.99
2023-01-03T01:23:38.270Z,25.99
2023-01-03T01:24:38.275Z,26.00
2023-01-03T01:25:38.279Z,25.97
2023-01-03T01:27:38.255Z,26.00
2023-01-03T01:28:38.238Z,25.97
2023-01-03T01:29:38.238Z,25.97
2023-01-03T05:47:36.812Z,25.96
2023-01-03T05:48:36.811Z,25.94
2023-01-03T05:49:36.815Z,25.94
2023-01-03T05:50:36.805Z,25.94
2023-01-03T05:51:36.825Z,25.94
2023-01-03T05:52:36.792Z,25.96
2023-01-03T05:53:36.808Z,25.97
2023-01-03T05:54:36.797Z,25.96
2023-01-03T05:55:36.791Z,25.97
2023-01-03T05:56:36.796Z,25.96
2023-01-03T05:57:36.794Z,25.96
2023-01-03T05:59:36.789Z,25.97
2023-01-03T06:00:36.781Z,25.97
2023-01-03T06:01:36.817Z,25.96
2023-01-03T06:02:36.849Z,25.97
2023-01-03T06:03:36.778Z,25.94
2023-01-03T06:04:36.840Z,25.96
2023-01-03T06:05:36.775Z,25.99
2023-01-03T06:06:36.778Z,25.97
2023-01-03T06:07:36.773Z,25.96
2023-01-03T06:08:36.777Z,25.97
2023-01-03T06:09:36.776Z,25.96
2023-01-03T06:10:36.777Z,25.96
2023-01-03T06:11:36.778Z,25.97
2023-01-03T06:12:36.773Z,25.96
2023-01-03T06:13:36.777Z,26.00
2023-01-03T06:14:36.800Z,25.96
2023-01-03T06:15:36.771Z,25.96
2023-01-03T06:16:36.838Z,25.97
2023-01-03T06:17:36.779Z,25.96
2023-01-03T06:18:36.767Z,25.97
2023-01-03T06:19:36.756Z,25.99
2023-01-03T06:20:36.751Z,25.97
2023-01-03T06:21:36.730Z,25.96
2023-01-03T06:22:36.740Z,25.97
2023-01-03T06:23:36.719Z,25.97
2023-01-03T06:24:36.717Z,25.97
2023-01-03T06:25:36.713Z,25.97
2023-01-03T06:26:36.746Z,25.97
2023-01-03T06:27:36.700Z,25.99
2023-01-03T06:28:36.692Z,25.97
2023-01-03T06:29:36.677Z,25.96
2023-01-03T06:30:36.730Z,25.94
2023-01-03T06:31:36.661Z,25.97
2023-01-03T06:32:36.654Z,25.97
2023-01-03T06:33:36.657Z,25.96
2023-01-03T06:34:36.647Z,25.97
2023-01-03T06:35:36.651Z,25.99
2023-01-03T06:36:36.648Z,25.97
2023-01-03T06:37:36.634Z,25.96
2023-01-03T06:38:36.627Z,25.96
2023-01-03T06:39:36.634Z,25.97
2023-01-03T06:40:42.342Z,25.97
2023-01-03T06:42:36.628Z,25.99
2023-01-03T06:43:36.606Z,25.96
2023-01-03T06:44:36.603Z,25.99
2023-01-03T06:45:36.588Z,25.96
2023-01-03T06:46:36.698Z,25.97
2023-01-03T06:47:36.582Z,25.97
2023-01-03T06:48:36.572Z,25.97
2023-01-03T06:49:36.564Z,25.96
2023-01-03T06:50:36.562Z,25.94
2023-01-03T06:51:36.555Z,25.96
2023-01-03T06:52:36.551Z,25.97
2023-01-03T06:53:36.551Z,25.99
2023-01-03T06:54:36.527Z,25.96
2023-01-03T06:55:36.532Z,25.96
2023-01-03T06:56:36.516Z,25.94
2023-01-03T06:57:36.511Z,25.97
2023-01-03T06:58:36.512Z,25.94
2023-01-03T06:59:36.486Z,25.99
2023-01-03T07:00:36.480Z,26.01
2023-01-03T07:01:36.671Z,25.99
2023-01-03T07:02:36.711Z,25.97
2023-01-03T07:03:36.470Z,25.97
2023-01-03T07:04:36.495Z,25.97
2023-01-03T07:05:36.444Z,25.99
2023-01-03T07:06:36.430Z,25.97
2023-01-03T07:07:36.420Z,25.96
2023-01-03T07:08:36.420Z,25.99
2023-01-03T07:09:36.409Z,25.99
2023-01-03T07:10:36.400Z,25.97
2023-01-03T07:11:36.384Z,25.97
2023-01-03T07:12:36.374Z,26.00
2023-01-03T07:13:36.389Z,25.99
2023-01-03T07:14:36.360Z,25.99
2023-01-03T07:15:36.405Z,25.97
2023-01-03T07:16:36.427Z,25.97
2023-01-03T07:17:36.350Z,25.97
2023-01-03T07:18:36.372Z,25.99
2023-01-03T07:19:36.350Z,25.99
2023-01-03T07:20:36.328Z,25.97
2023-01-03T07:21:36.356Z,26.00
2023-01-03T07:22:36.327Z,25.99
2023-01-03T07:23:36.316Z,25.97
2023-01-03T07:24:36.314Z,26.00
2023-01-03T07:25:36.324Z,25.99
2023-01-03T07:26:36.321Z,25.97
2023-01-03T07:27:36.307Z,25.97
2023-01-03T07:28:36.306Z,25.97
2023-01-03T07:29:36.305Z,25.97
2023-01-03T07:30:36.304Z,26.01
2023-01-03T07:31:36.414Z,26.01
2023-01-03T07:32:36.292Z,26.00
2023-01-03T07:33:36.286Z,25.97
2023-01-03T07:34:36.318Z,25.97
2023-01-03T07:35:36.280Z,25.97
2023-01-03T07:36:36.270Z,25.99
2023-01-03T07:37:36.260Z,25.99
2023-01-03T07:38:36.271Z,25.99
2023-01-03T07:39:36.255Z,26.00
2023-01-03T07:40:36.261Z,26.00
2023-01-03T07:41:36.254Z,25.97
2023-01-03T07:42:36.256Z,25.99
2023-01-03T07:43:36.242Z,25.97
2023-01-03T07:44:36.230Z,25.99
2023-01-03T07:45:36.230Z,25.96
2023-01-03T07:46:36.297Z,26.00
2023-01-03T07:47:36.242Z,25.97
2023-01-03T07:48:36.220Z,25.99
2023-01-03T07:49:36.218Z,26.00
2023-01-03T07:50:36.236Z,26.00
2023-01-03T07:51:36.205Z,26.01
2023-01-03T07:52:36.198Z,26.00
2023-01-03T07:53:36.196Z,25.99
2023-01-03T07:54:36.205Z,26.00
2023-01-03T07:55:36.260Z,26.00
2023-01-03T07:56:36.188Z,26.01
2023-01-03T07:57:36.182Z,26.00
2023-01-03T07:58:36.194Z,26.00
2023-01-03T07:59:36.196Z,26.00
2023-01-03T08:00:36.196Z,26.03
2023-01-03T08:01:36.285Z,25.99
2023-01-03T08:02:36.370Z,26.03
2023-01-03T08:03:36.211Z,26.01
2023-01-03T08:04:36.237Z,26.01
2023-01-03T08:05:36.268Z,26.01
2023-01-03T08:06:36.228Z,26.00
2023-01-03T08:07:36.205Z,26.00
2023-01-03T08:08:36.208Z,25.99
2023-01-03T08:09:36.196Z,26.03
2023-01-03T08:10:36.186Z,26.01
2023-01-03T08:11:36.181Z,26.00
2023-01-03T08:12:36.213Z,25.97
2023-01-03T08:13:36.175Z,26.00
2023-01-03T08:14:36.188Z,26.01
2023-01-03T08:15:36.294Z,26.00
2023-01-03T08:16:36.283Z,26.00
2023-01-03T08:17:36.183Z,26.00
2023-01-03T08:18:36.175Z,26.00
2023-01-03T08:19:41.728Z,26.01
2023-01-03T08:20:36.175Z,26.03
2023-01-03T08:21:36.195Z,26.01
2023-01-03T08:22:36.193Z,26.03
2023-01-03T08:23:36.178Z,26.04
2023-01-03T08:24:36.172Z,26.03
2023-01-03T08:25:36.233Z,26.01
2023-01-03T08:26:36.179Z,26.01
2023-01-03T08:27:36.177Z,26.03
2023-01-03T08:28:36.180Z,26.03
2023-01-03T08:29:36.182Z,26.04
2023-01-03T08:30:36.186Z,26.00
2023-01-03T08:31:36.266Z,26.03
2023-01-03T08:32:36.201Z,26.01
2023-01-03T08:33:36.191Z,26.01
2023-01-03T08:34:36.261Z,26.04
2023-01-03T08:35:36.202Z,26.01
2023-01-03T08:36:36.206Z,26.01
2023-01-03T08:37:36.206Z,26.03
2023-01-03T08:38:36.336Z,26.03
2023-01-03T08:39:36.209Z,26.04
2023-01-03T08:40:41.604Z,26.04
2023-01-03T08:41:36.208Z,26.00
2023-01-03T08:42:36.212Z,26.03
2023-01-03T08:43:36.206Z,26.03
2023-01-03T08:44:36.210Z,26.01
2023-01-03T08:45:36.200Z,26.03
2023-01-03T08:46:36.222Z,26.01
2023-01-03T08:47:36.188Z,26.03
2023-01-03T08:48:36.178Z,26.04
2023-01-03T08:49:36.178Z,26.04
2023-01-03T08:50:36.167Z,26.04
2023-01-03T08:51:36.157Z,26.03
2023-01-03T08:52:36.152Z,26.03
2023-01-03T08:53:36.148Z,26.04
2023-01-03T08:54:36.162Z,26.07
2023-01-03T08:55:36.134Z,26.04
2023-01-03T08:56:36.120Z,26.01
2023-01-03T08:57:36.114Z,26.00
2023-01-03T08:58:36.115Z,26.04
2023-01-03T08:59:36.097Z,26.03
2023-01-03T09:00:36.097Z,26.05
2023-01-03T09:01:36.233Z,26.04
2023-01-03T09:02:36.555Z,26.04
2023-01-03T09:03:36.233Z,26.04
2023-01-03T09:04:36.093Z,26.05
2023-01-03T09:05:36.054Z,26.07
2023-01-03T09:06:36.041Z,26.05
2023-01-03T09:07:36.050Z,26.05
2023-01-03T09:08:36.065Z,26.03
2023-01-03T09:09:36.049Z,26.07
2023-01-03T09:10:36.052Z,26.04
2023-01-03T09:11:36.024Z,26.07
2023-01-03T09:12:36.027Z,26.04
2023-01-03T09:13:36.041Z,26.04
2023-01-03T09:14:36.006Z,26.04
2023-01-03T09:15:36.007Z,26.05
2023-01-03T09:16:36.055Z,26.05
2023-01-03T09:17:36.011Z,26.04
2023-01-03T09:18:35.991Z,26.07
2023-01-03T09:19:36.001Z,26.07
2023-01-03T09:20:36.001Z,26.04
2023-01-03T09:21:35.989Z,26.03
2023-01-03T09:22:35.984Z,26.07
2023-01-03T09:23:35.981Z,26.05
2023-01-03T09:24:35.981Z,26.04
2023-01-03T09:25:37.452Z,26.05
2023-01-03T09:26:36.233Z,26.03
2023-01-03T09:27:36.202Z,26.05
2023-01-03T09:28:36.202Z,26.04
2023-01-03T09:29:36.198Z,26.03
2023-01-03T09:30:36.193Z,26.04
2023-01-03T09:31:36.244Z,26.04
2023-01-03T09:32:36.185Z,26.05
2023-01-03T09:33:36.190Z,26.07
2023-01-03T09:34:36.189Z,26.04
2023-01-03T09:35:36.189Z,26.04
2023-01-03T09:36:36.193Z,26.04
2023-01-03T09:37:36.195Z,26.08
2023-01-03T09:38:36.186Z,26.05
2023-01-03T09:39:36.183Z,26.04
2023-01-03T09:40:36.201Z,26.05
2023-01-03T09:41:36.194Z,26.04
2023-01-03T09:42:36.261Z,26.04
2023-01-03T09:43:36.168Z,26.07
2023-01-03T09:44:36.179Z,26.07
2023-01-03T09:45:36.162Z,26.08
2023-01-03T09:46:36.220Z,26.05
2023-01-03T09:47:36.155Z,26.07
2023-01-03T09:48:36.152Z,26.07
2023-01-03T09:49:36.144Z,26.05
2023-01-03T09:50:57.376Z,26.10
2023-01-03T09:51:36.140Z,26.07
2023-01-03T09:52:36.129Z,26.05
2023-01-03T09:53:36.126Z,26.07
2023-01-03T09:54:36.115Z,26.07
2023-01-03T09:55:36.106Z,26.10
2023-01-03T09:56:36.097Z,26.05
2023-01-03T09:57:36.097Z,26.05
2023-01-03T09:58:36.127Z,26.05
2023-01-03T09:59:36.097Z,26.05
2023-01-03T10:00:36.125Z,26.07
2023-01-03T10:01:36.280Z,26.10
2023-01-03T10:02:36.173Z,26.08
2023-01-03T10:03:36.118Z,26.08
2023-01-03T10:04:36.024Z,26.05
2023-01-03T10:05:36.011Z,26.07
2023-01-03T10:06:36.030Z,26.05
2023-01-03T10:07:35.996Z,26.05
2023-01-03T10:08:35.977Z,26.04
2023-01-03T10:09:35.970Z,26.07
2023-01-03T10:10:35.970Z,26.05
2023-01-03T12:12:35.983Z,26.03
